Helena, Oklahoma
Current Conditions -  °F | °C
As of 3:58 AM on Sunday 23 Nov 2014 (Local Time) from KEND Reporting Station
Overcast Overcast  
Wind Chill: 53°   Ceiling: 800
Heat Index: 53°   Visibility: 10mi
Dew Point: 52°   Wind: 16mph
Humidity: 95%   Direction: 160°SSE
Pressure: 29.48"   Gusts: NA
Location:  36.55°N, 98.27°W
Report Text: KEND 230958Z AUTO 16014KT 10SM OVC008 12/11 A2948 RMK AO2 SLP981 T01170109 $
Loading
Personal Weather Stations






























Interactive Weather Map New forecast layout! Learn more

10-Day Weather Forecast

Advertisements
Track Severe Weather on mobile